Mersa Matruh, Egypt
Current Conditions -  °F | °C
As of 12:00 PM on Thursday 29 Jan 2015 (Local Time) from HEMM Reporting Station
Few Clouds Few Clouds  
Wind Chill: 61°   Ceiling: Unl
Heat Index: 61°   Visibility: 6mi
Dew Point: 43°   Wind: 17mph
Humidity: 52%   Direction: 240°WSW
Pressure: 29.94"   Gusts: NA
Location:  31.32°N, 27.22°E
Report Text: HEMM 291000Z 24015KT 9999 FEW025 16/06 Q1014 NOSIG
Loading
Personal Weather Stations






























Interactive Weather Map New forecast layout! Learn more

10-Day Weather Forecast

Advertisements
Track Severe Weather on mobile